Azalea, Oregon
Current Conditions -  °F | °C
As of 4:56 PM on Saturday 25 Oct 2014 (Local Time) from KSXT Reporting Station
Moderate Fog Moderate Fog  
Wind Chill:   Ceiling: 200
Heat Index:   Visibility: 0.25mi
Dew Point:   Wind: 10mph
Humidity: 100%   Direction: 230°SW
Pressure: 29.86"   Gusts: 23mph
Location:  42.8°N, 123.26°W
Report Text: KSXT 252356Z AUTO 23009G20KT 200V280 1/4SM FG BKN002 OVC010 07/07 A2986 RMK AO2 PK WND 23027/2306 PRESRR SLP109 60041 T00670067 10083 20061 53050
Loading
Personal Weather Stations






























Interactive Weather Map
Tropical Storm Tracking
New forecast layout! Learn more

10-Day Weather Forecast

Advertisements
Track Severe Weather on mobile